CFG321 EDDF-EIDW
Flight info
| Callsign | CFG321 |
|---|---|
| Flight time | 1h 43m |
| Altitude | 36000 |
| Route | OBOKA3W/25C OBOKA Z28 DIBIR DCT BUDIP DCT RAVLO Y70 OTBED L60 PENIL UL28 LELDO M145 BAGSO BAGSO4L |
| Aircraft | A321/M-SDE3FGHIRWY/LB1 |
Departure
| Time | 2026-05-06 16:15 |
|---|---|
| Airport | Frankfurt Main Airport (EDDF) |
Arrival
| Time | 2026-05-06 17:58 |
|---|---|
| Airport | Dublin Airport (EIDW) |
| Time | Latitude | Longitude | Altitude | Speed | Heading |
|---|---|---|---|---|---|
| 2026-05-06 15:53 | 50.04653 | 8.57067 | 356 ft | 1 kts | 91° |
| 2026-05-06 16:01 | 50.04653 | 8.57052 | 356 ft | 8 kts | 93° |
| 2026-05-06 16:01 | 50.04655 | 8.57020 | 356 ft | 8 kts | 99° |
| 2026-05-06 16:02 | 50.04659 | 8.56990 | 363 ft | 9 kts | 111° |
| 2026-05-06 16:02 | 50.04668 | 8.56964 | 358 ft | 9 kts | 141° |
| 2026-05-06 16:02 | 50.04680 | 8.56954 | 363 ft | 8 kts | 198° |
| 2026-05-06 16:02 | 50.04687 | 8.56958 | 360 ft | 7 kts | 204° |
| 2026-05-06 16:05 | 50.04681 | 8.56954 | 362 ft | 5 kts | 204° |
| 2026-05-06 16:05 | 50.04640 | 8.56927 | 358 ft | 5 kts | 200° |
| 2026-05-06 16:05 | 50.04595 | 8.56910 | 356 ft | 13 kts | 191° |
| 2026-05-06 16:06 | 50.04536 | 8.56890 | 362 ft | 5 kts | 194° |
| 2026-05-06 16:06 | 50.04534 | 8.56889 | 362 ft | 0 kts | 194° |
| 2026-05-06 16:06 | 50.04532 | 8.56888 | 361 ft | 3 kts | 194° |
| 2026-05-06 16:07 | 50.04493 | 8.56873 | 359 ft | 5 kts | 194° |
| 2026-05-06 16:07 | 50.04475 | 8.56866 | 359 ft | 1 kts | 194° |
| 2026-05-06 16:07 | 50.04409 | 8.56848 | 366 ft | 26 kts | 189° |
| 2026-05-06 16:07 | 50.04287 | 8.56836 | 361 ft | 10 kts | 180° |
| 2026-05-06 16:08 | 50.04251 | 8.56845 | 366 ft | 1 kts | 115° |
| 2026-05-06 16:08 | 50.04264 | 8.56886 | 359 ft | 16 kts | 63° |
| 2026-05-06 16:08 | 50.04332 | 8.57139 | 363 ft | 27 kts | 71° |
| 2026-05-06 16:08 | 50.04392 | 8.57392 | 368 ft | 23 kts | 69° |
| 2026-05-06 16:09 | 50.04441 | 8.57596 | 366 ft | 17 kts | 71° |
| 2026-05-06 16:09 | 50.04480 | 8.57757 | 367 ft | 15 kts | 70° |
| 2026-05-06 16:09 | 50.04510 | 8.57885 | 365 ft | 10 kts | 69° |
| 2026-05-06 16:09 | 50.04546 | 8.58032 | 368 ft | 18 kts | 69° |
| 2026-05-06 16:10 | 50.04585 | 8.58196 | 370 ft | 13 kts | 69° |
| 2026-05-06 16:10 | 50.04635 | 8.58401 | 370 ft | 31 kts | 69° |
| 2026-05-06 16:10 | 50.04609 | 8.58577 | 371 ft | 15 kts | 157° |
| 2026-05-06 16:10 | 50.04528 | 8.58618 | 371 ft | 10 kts | 179° |
| 2026-05-06 16:11 | 50.04486 | 8.58572 | 370 ft | 6 kts | 237° |
| 2026-05-06 16:11 | 50.04474 | 8.58529 | 370 ft | 3 kts | 249° |
| 2026-05-06 16:11 | 50.04473 | 8.58524 | 370 ft | 0 kts | 250° |
| 2026-05-06 16:14 | 50.04445 | 8.58407 | 372 ft | 39 kts | 249° |
| 2026-05-06 16:14 | 50.04273 | 8.57686 | 362 ft | 100 kts | 249° |
| 2026-05-06 16:14 | 50.03975 | 8.56443 | 358 ft | 144 kts | 249° |
| 2026-05-06 16:14 | 50.03578 | 8.54815 | 430 ft | 170 kts | 250° |
| 2026-05-06 16:15 | 50.03179 | 8.53166 | 1192 ft | 158 kts | 252° |
| 2026-05-06 16:15 | 50.02790 | 8.51598 | 1978 ft | 152 kts | 251° |
| 2026-05-06 16:15 | 50.02394 | 8.50080 | 2692 ft | 151 kts | 247° |
| 2026-05-06 16:15 | 50.01895 | 8.48667 | 3350 ft | 150 kts | 214° |
| 2026-05-06 16:16 | 50.00813 | 8.48420 | 3710 ft | 173 kts | 176° |
| 2026-05-06 16:16 | 49.99546 | 8.48469 | 3941 ft | 192 kts | 190° |
| 2026-05-06 16:16 | 49.98181 | 8.48097 | 4325 ft | 203 kts | 194° |
| 2026-05-06 16:16 | 49.96782 | 8.47644 | 4914 ft | 206 kts | 195° |
| 2026-05-06 16:17 | 49.95401 | 8.47019 | 5507 ft | 214 kts | 202° |
| 2026-05-06 16:17 | 49.93927 | 8.46202 | 5990 ft | 234 kts | 200° |
| 2026-05-06 16:17 | 49.92395 | 8.45246 | 6708 ft | 240 kts | 212° |
| 2026-05-06 16:17 | 49.91079 | 8.43643 | 7411 ft | 243 kts | 228° |
| 2026-05-06 16:18 | 49.90109 | 8.41490 | 8131 ft | 246 kts | 239° |
| 2026-05-06 16:18 | 49.89245 | 8.39189 | 8911 ft | 248 kts | 243° |
| 2026-05-06 16:18 | 49.88695 | 8.36623 | 9596 ft | 255 kts | 260° |
| 2026-05-06 16:18 | 49.88664 | 8.33807 | 9977 ft | 276 kts | 274° |
| 2026-05-06 16:19 | 49.88852 | 8.30716 | 10289 ft | 300 kts | 273° |
| 2026-05-06 16:19 | 49.89200 | 8.27403 | 10576 ft | 325 kts | 286° |
| 2026-05-06 16:19 | 49.90207 | 8.24189 | 11112 ft | 338 kts | 303° |
| 2026-05-06 16:19 | 49.91614 | 8.21226 | 11912 ft | 343 kts | 305° |
| 2026-05-06 16:20 | 49.93039 | 8.18238 | 12564 ft | 346 kts | 304° |
| 2026-05-06 16:20 | 49.94612 | 8.15377 | 13237 ft | 351 kts | 315° |
| 2026-05-06 16:20 | 49.96479 | 8.12832 | 13980 ft | 354 kts | 316° |
| 2026-05-06 16:20 | 49.98296 | 8.10243 | 14640 ft | 357 kts | 314° |
| 2026-05-06 16:21 | 50.00067 | 8.07568 | 15254 ft | 362 kts | 313° |
| 2026-05-06 16:21 | 50.01854 | 8.04787 | 15907 ft | 366 kts | 312° |
| 2026-05-06 16:21 | 50.03656 | 8.01959 | 16534 ft | 370 kts | 313° |
| 2026-05-06 16:21 | 50.05482 | 7.99105 | 17137 ft | 375 kts | 313° |
| 2026-05-06 16:22 | 50.07336 | 7.96225 | 17734 ft | 379 kts | 313° |
| 2026-05-06 16:22 | 50.09219 | 7.93322 | 18284 ft | 383 kts | 313° |
| 2026-05-06 16:22 | 50.11124 | 7.90393 | 18840 ft | 386 kts | 313° |
| 2026-05-06 16:22 | 50.13046 | 7.87445 | 19393 ft | 389 kts | 314° |
| 2026-05-06 16:23 | 50.14984 | 7.84471 | 19935 ft | 392 kts | 314° |
| 2026-05-06 16:23 | 50.16929 | 7.81480 | 20503 ft | 393 kts | 313° |
| 2026-05-06 16:23 | 50.18860 | 7.78505 | 21150 ft | 393 kts | 313° |
| 2026-05-06 16:23 | 50.20740 | 7.75602 | 21719 ft | 394 kts | 313° |
| 2026-05-06 16:24 | 50.22692 | 7.72585 | 22277 ft | 396 kts | 313° |
| 2026-05-06 16:24 | 50.24656 | 7.69545 | 22804 ft | 399 kts | 313° |
| 2026-05-06 16:24 | 50.26630 | 7.66484 | 23311 ft | 401 kts | 312° |
| 2026-05-06 16:24 | 50.28618 | 7.63397 | 23759 ft | 404 kts | 312° |
| 2026-05-06 16:25 | 50.30565 | 7.60370 | 24170 ft | 407 kts | 312° |
| 2026-05-06 16:25 | 50.32581 | 7.57228 | 24578 ft | 410 kts | 312° |
| 2026-05-06 16:25 | 50.34607 | 7.54067 | 24972 ft | 413 kts | 312° |
| 2026-05-06 16:25 | 50.36652 | 7.50875 | 25354 ft | 417 kts | 312° |
| 2026-05-06 16:26 | 50.38713 | 7.47653 | 25730 ft | 420 kts | 312° |
| 2026-05-06 16:26 | 50.40786 | 7.44408 | 26106 ft | 423 kts | 312° |
| 2026-05-06 16:26 | 50.42872 | 7.41138 | 26544 ft | 425 kts | 312° |
| 2026-05-06 16:26 | 50.44968 | 7.37848 | 26921 ft | 428 kts | 312° |
| 2026-05-06 16:27 | 50.47076 | 7.34542 | 27323 ft | 430 kts | 312° |
| 2026-05-06 16:27 | 50.49203 | 7.31204 | 27679 ft | 433 kts | 312° |
| 2026-05-06 16:27 | 50.51338 | 7.27846 | 28061 ft | 436 kts | 312° |
| 2026-05-06 16:27 | 50.53483 | 7.24460 | 28441 ft | 438 kts | 312° |
| 2026-05-06 16:28 | 50.55639 | 7.21051 | 28796 ft | 441 kts | 312° |
| 2026-05-06 16:28 | 50.57804 | 7.17623 | 29147 ft | 444 kts | 312° |
| 2026-05-06 16:28 | 50.59985 | 7.14167 | 29507 ft | 446 kts | 312° |
| 2026-05-06 16:28 | 50.62113 | 7.10795 | 29840 ft | 448 kts | 312° |
| 2026-05-06 16:29 | 50.64315 | 7.07304 | 30150 ft | 451 kts | 312° |
| 2026-05-06 16:29 | 50.66529 | 7.03786 | 30447 ft | 453 kts | 312° |
| 2026-05-06 16:29 | 50.68599 | 7.00483 | 30772 ft | 454 kts | 313° |
| 2026-05-06 16:29 | 50.70840 | 6.96904 | 31204 ft | 453 kts | 313° |
| 2026-05-06 16:30 | 50.73046 | 6.93375 | 31622 ft | 452 kts | 313° |
| 2026-05-06 16:30 | 50.74511 | 6.91032 | 31901 ft | 452 kts | 313° |
| 2026-05-06 16:30 | 50.77458 | 6.86312 | 32450 ft | 451 kts | 313° |
| 2026-05-06 16:30 | 50.79610 | 6.82855 | 32850 ft | 450 kts | 313° |
| 2026-05-06 16:31 | 50.81848 | 6.79261 | 33263 ft | 450 kts | 312° |
| 2026-05-06 16:31 | 50.84040 | 6.75739 | 33660 ft | 449 kts | 312° |
| 2026-05-06 16:31 | 50.86221 | 6.72233 | 34011 ft | 449 kts | 312° |
| 2026-05-06 16:31 | 50.88407 | 6.68709 | 34300 ft | 448 kts | 312° |
| 2026-05-06 16:32 | 50.90583 | 6.65196 | 34595 ft | 449 kts | 312° |
| 2026-05-06 16:32 | 50.92766 | 6.61666 | 34872 ft | 449 kts | 311° |
| 2026-05-06 16:32 | 50.94519 | 6.58822 | 35114 ft | 449 kts | 311° |
| 2026-05-06 16:32 | 50.96668 | 6.55313 | 35369 ft | 449 kts | 312° |
| 2026-05-06 16:33 | 50.98848 | 6.51768 | 35644 ft | 450 kts | 312° |
| 2026-05-06 16:33 | 51.00991 | 6.48284 | 35843 ft | 451 kts | 312° |
| 2026-05-06 16:34 | 51.07434 | 6.37807 | 35889 ft | 446 kts | 311° |
| 2026-05-06 16:34 | 51.11323 | 6.31439 | 35887 ft | 446 kts | 311° |
| 2026-05-06 16:35 | 51.15615 | 6.24389 | 35896 ft | 446 kts | 311° |
| 2026-05-06 16:35 | 51.19720 | 6.17644 | 35906 ft | 446 kts | 311° |
| 2026-05-06 16:36 | 51.23600 | 6.11244 | 35893 ft | 447 kts | 311° |
| 2026-05-06 16:36 | 51.27790 | 6.04300 | 35904 ft | 446 kts | 311° |
| 2026-05-06 16:37 | 51.32097 | 5.97142 | 35890 ft | 446 kts | 311° |
| 2026-05-06 16:37 | 51.36346 | 5.90067 | 35904 ft | 446 kts | 311° |
| 2026-05-06 16:38 | 51.40436 | 5.83247 | 35904 ft | 446 kts | 311° |
| 2026-05-06 16:38 | 51.44603 | 5.76234 | 35914 ft | 446 kts | 311° |
| 2026-05-06 16:39 | 51.48817 | 5.69098 | 35915 ft | 445 kts | 311° |
| 2026-05-06 16:39 | 51.52950 | 5.62084 | 35915 ft | 445 kts | 311° |
| 2026-05-06 16:40 | 51.57163 | 5.54922 | 35916 ft | 444 kts | 311° |
| 2026-05-06 16:40 | 51.61308 | 5.47865 | 35918 ft | 444 kts | 311° |
| 2026-05-06 16:41 | 51.65463 | 5.40765 | 35919 ft | 444 kts | 311° |
| 2026-05-06 16:41 | 51.69696 | 5.33523 | 35932 ft | 444 kts | 311° |
| 2026-05-06 16:42 | 51.73883 | 5.26325 | 35948 ft | 443 kts | 311° |
| 2026-05-06 16:42 | 51.77897 | 5.19406 | 35947 ft | 443 kts | 311° |
| 2026-05-06 16:43 | 51.82080 | 5.12193 | 35942 ft | 442 kts | 311° |
| 2026-05-06 16:43 | 51.86273 | 5.04920 | 35939 ft | 442 kts | 310° |
| 2026-05-06 16:44 | 51.90426 | 4.97689 | 35937 ft | 442 kts | 310° |
| 2026-05-06 16:44 | 51.94605 | 4.90406 | 35940 ft | 442 kts | 310° |
| 2026-05-06 16:44 | 51.96609 | 4.86911 | 35794 ft | 439 kts | 310° |
| 2026-05-06 16:45 | 51.98688 | 4.83279 | 35908 ft | 439 kts | 310° |
| 2026-05-06 16:45 | 52.02803 | 4.76075 | 35938 ft | 439 kts | 310° |
| 2026-05-06 16:46 | 52.06843 | 4.68972 | 35943 ft | 438 kts | 309° |
| 2026-05-06 16:46 | 52.10953 | 4.61709 | 35941 ft | 437 kts | 309° |
| 2026-05-06 16:47 | 52.14989 | 4.54559 | 35936 ft | 436 kts | 309° |
| 2026-05-06 16:47 | 52.19083 | 4.47297 | 35939 ft | 436 kts | 309° |
| 2026-05-06 16:48 | 52.23197 | 4.39974 | 35941 ft | 436 kts | 309° |
| 2026-05-06 16:48 | 52.27267 | 4.32727 | 35938 ft | 436 kts | 309° |
| 2026-05-06 16:49 | 52.31292 | 4.25532 | 35939 ft | 436 kts | 309° |
| 2026-05-06 16:49 | 52.35377 | 4.18201 | 35939 ft | 436 kts | 309° |
| 2026-05-06 16:50 | 52.39446 | 4.10860 | 35941 ft | 436 kts | 309° |
| 2026-05-06 16:50 | 52.43518 | 4.03499 | 35951 ft | 436 kts | 309° |
| 2026-05-06 16:51 | 52.47580 | 3.96131 | 35964 ft | 436 kts | 309° |
| 2026-05-06 16:51 | 52.51647 | 3.88749 | 35954 ft | 436 kts | 309° |
| 2026-05-06 16:52 | 52.55718 | 3.81352 | 35954 ft | 437 kts | 309° |
| 2026-05-06 16:52 | 52.59789 | 3.73928 | 35952 ft | 437 kts | 309° |
| 2026-05-06 16:53 | 52.63853 | 3.66483 | 35953 ft | 437 kts | 309° |
| 2026-05-06 16:53 | 52.67907 | 3.59021 | 35966 ft | 437 kts | 309° |
| 2026-05-06 16:54 | 52.71959 | 3.51541 | 35979 ft | 437 kts | 309° |
| 2026-05-06 16:54 | 52.76007 | 3.44051 | 35978 ft | 437 kts | 309° |
| 2026-05-06 16:55 | 52.80048 | 3.36547 | 35977 ft | 437 kts | 309° |
| 2026-05-06 16:55 | 52.84086 | 3.29032 | 35980 ft | 437 kts | 309° |
| 2026-05-06 16:56 | 52.88120 | 3.21517 | 35981 ft | 437 kts | 309° |
| 2026-05-06 16:56 | 52.91469 | 3.13254 | 35980 ft | 430 kts | 291° |
| 2026-05-06 16:57 | 52.93148 | 3.03827 | 35980 ft | 427 kts | 280° |
| 2026-05-06 16:57 | 52.94202 | 2.95835 | 35991 ft | 427 kts | 280° |
| 2026-05-06 16:58 | 52.95473 | 2.86193 | 35980 ft | 428 kts | 280° |
| 2026-05-06 16:58 | 52.96733 | 2.76533 | 35990 ft | 429 kts | 280° |
| 2026-05-06 16:59 | 52.97983 | 2.66861 | 35999 ft | 429 kts | 280° |
| 2026-05-06 16:59 | 52.99228 | 2.57168 | 35998 ft | 430 kts | 280° |
| 2026-05-06 17:00 | 53.00469 | 2.47462 | 35986 ft | 430 kts | 281° |
| 2026-05-06 17:00 | 53.01705 | 2.37717 | 35989 ft | 431 kts | 280° |
| 2026-05-06 17:01 | 53.02929 | 2.27956 | 35995 ft | 432 kts | 280° |
| 2026-05-06 17:01 | 53.04157 | 2.18172 | 36000 ft | 433 kts | 280° |
| 2026-05-06 17:02 | 53.05370 | 2.08381 | 36011 ft | 433 kts | 280° |
| 2026-05-06 17:02 | 53.06571 | 1.98645 | 36010 ft | 433 kts | 280° |
| 2026-05-06 17:03 | 53.07771 | 1.88824 | 36012 ft | 434 kts | 280° |
| 2026-05-06 17:03 | 53.08963 | 1.78988 | 36010 ft | 434 kts | 280° |
| 2026-05-06 17:04 | 53.10149 | 1.69125 | 36016 ft | 434 kts | 280° |
| 2026-05-06 17:04 | 53.11327 | 1.59267 | 36021 ft | 435 kts | 280° |
| 2026-05-06 17:05 | 53.12496 | 1.49394 | 36028 ft | 435 kts | 280° |
| 2026-05-06 17:05 | 53.13654 | 1.39511 | 36020 ft | 435 kts | 280° |
| 2026-05-06 17:06 | 53.14809 | 1.29604 | 36028 ft | 436 kts | 280° |
| 2026-05-06 17:06 | 53.15963 | 1.19695 | 36031 ft | 436 kts | 280° |
| 2026-05-06 17:07 | 53.17107 | 1.09772 | 36034 ft | 436 kts | 280° |
| 2026-05-06 17:07 | 53.18243 | 0.99853 | 36038 ft | 436 kts | 280° |
| 2026-05-06 17:08 | 53.19368 | 0.89910 | 36039 ft | 436 kts | 280° |
| 2026-05-06 17:08 | 53.20485 | 0.79961 | 36043 ft | 437 kts | 280° |
| 2026-05-06 17:09 | 53.21592 | 0.70000 | 36048 ft | 437 kts | 279° |
| 2026-05-06 17:09 | 53.22682 | 0.60028 | 36050 ft | 437 kts | 279° |
| 2026-05-06 17:10 | 53.23774 | 0.50057 | 36054 ft | 437 kts | 279° |
| 2026-05-06 17:10 | 53.24865 | 0.40090 | 36063 ft | 437 kts | 279° |
| 2026-05-06 17:11 | 53.25948 | 0.30117 | 36079 ft | 436 kts | 279° |
| 2026-05-06 17:11 | 53.27010 | 0.20166 | 36081 ft | 435 kts | 279° |
| 2026-05-06 17:12 | 53.28063 | 0.10231 | 36088 ft | 434 kts | 279° |
| 2026-05-06 17:12 | 53.29099 | 0.00373 | 36078 ft | 433 kts | 279° |
| 2026-05-06 17:13 | 53.30130 | -0.09497 | 36061 ft | 422 kts | 279° |
| 2026-05-06 17:13 | 53.31112 | -0.19029 | 36045 ft | 418 kts | 279° |
| 2026-05-06 17:14 | 53.32098 | -0.28632 | 36044 ft | 419 kts | 279° |
| 2026-05-06 17:14 | 53.33079 | -0.38259 | 36048 ft | 420 kts | 279° |
| 2026-05-06 17:15 | 53.34054 | -0.47917 | 36055 ft | 421 kts | 279° |
| 2026-05-06 17:15 | 53.35018 | -0.57576 | 36060 ft | 421 kts | 279° |
| 2026-05-06 17:16 | 53.35975 | -0.67255 | 36069 ft | 422 kts | 279° |
| 2026-05-06 17:16 | 53.36931 | -0.76949 | 36073 ft | 422 kts | 279° |
| 2026-05-06 17:17 | 53.37873 | -0.86637 | 36073 ft | 422 kts | 279° |
| 2026-05-06 17:17 | 53.38809 | -0.96330 | 36074 ft | 422 kts | 279° |
| 2026-05-06 17:18 | 53.39736 | -1.06035 | 36072 ft | 422 kts | 279° |
| 2026-05-06 17:18 | 53.40662 | -1.15751 | 36070 ft | 422 kts | 279° |
| 2026-05-06 17:19 | 53.41579 | -1.25477 | 36070 ft | 423 kts | 279° |
| 2026-05-06 17:19 | 53.42483 | -1.35208 | 36070 ft | 423 kts | 279° |
| 2026-05-06 17:20 | 53.43382 | -1.44952 | 36063 ft | 423 kts | 279° |
| 2026-05-06 17:20 | 53.44274 | -1.54696 | 36062 ft | 423 kts | 279° |
| 2026-05-06 17:21 | 53.45163 | -1.64449 | 36060 ft | 423 kts | 279° |
| 2026-05-06 17:21 | 53.46040 | -1.74217 | 36057 ft | 423 kts | 279° |
| 2026-05-06 17:22 | 53.46904 | -1.83996 | 36057 ft | 424 kts | 279° |
| 2026-05-06 17:22 | 53.47769 | -1.93775 | 36050 ft | 424 kts | 279° |
| 2026-05-06 17:23 | 53.48629 | -2.03562 | 36052 ft | 424 kts | 278° |
| 2026-05-06 17:23 | 53.49478 | -2.13364 | 35911 ft | 425 kts | 279° |
| 2026-05-06 17:23 | 53.49898 | -2.18273 | 35654 ft | 424 kts | 279° |
| 2026-05-06 17:24 | 53.50307 | -2.23112 | 35409 ft | 424 kts | 279° |
| 2026-05-06 17:24 | 53.50724 | -2.28087 | 35159 ft | 424 kts | 279° |
| 2026-05-06 17:24 | 53.51131 | -2.32928 | 34920 ft | 424 kts | 279° |
| 2026-05-06 17:24 | 53.51544 | -2.37831 | 34681 ft | 424 kts | 279° |
| 2026-05-06 17:25 | 53.51956 | -2.42736 | 34436 ft | 424 kts | 279° |
| 2026-05-06 17:25 | 53.52366 | -2.47655 | 34205 ft | 425 kts | 279° |
| 2026-05-06 17:25 | 53.52772 | -2.52563 | 33958 ft | 425 kts | 279° |
| 2026-05-06 17:25 | 53.53178 | -2.57484 | 33688 ft | 425 kts | 279° |
| 2026-05-06 17:26 | 53.53583 | -2.62410 | 33389 ft | 426 kts | 279° |
| 2026-05-06 17:26 | 53.53983 | -2.67343 | 33108 ft | 426 kts | 279° |
| 2026-05-06 17:26 | 53.54382 | -2.72270 | 32836 ft | 425 kts | 279° |
| 2026-05-06 17:26 | 53.54779 | -2.77181 | 32566 ft | 423 kts | 279° |
| 2026-05-06 17:27 | 53.55172 | -2.82063 | 32300 ft | 421 kts | 279° |
| 2026-05-06 17:27 | 53.55560 | -2.86931 | 32036 ft | 419 kts | 279° |
| 2026-05-06 17:27 | 53.55943 | -2.91781 | 31780 ft | 417 kts | 279° |
| 2026-05-06 17:27 | 53.56323 | -2.96605 | 31518 ft | 415 kts | 279° |
| 2026-05-06 17:28 | 53.56699 | -3.01405 | 31259 ft | 413 kts | 279° |
| 2026-05-06 17:28 | 53.57071 | -3.06192 | 31004 ft | 412 kts | 279° |
| 2026-05-06 17:28 | 53.57439 | -3.10955 | 30741 ft | 410 kts | 279° |
| 2026-05-06 17:28 | 53.57807 | -3.15704 | 30495 ft | 409 kts | 279° |
| 2026-05-06 17:29 | 53.58172 | -3.20450 | 30243 ft | 408 kts | 279° |
| 2026-05-06 17:29 | 53.58533 | -3.25169 | 29983 ft | 406 kts | 279° |
| 2026-05-06 17:29 | 53.58892 | -3.29875 | 29692 ft | 405 kts | 279° |
| 2026-05-06 17:29 | 53.59249 | -3.34566 | 29409 ft | 403 kts | 279° |
| 2026-05-06 17:30 | 53.59601 | -3.39224 | 29127 ft | 401 kts | 279° |
| 2026-05-06 17:30 | 53.59949 | -3.43862 | 28843 ft | 397 kts | 279° |
| 2026-05-06 17:30 | 53.60289 | -3.48421 | 28558 ft | 387 kts | 279° |
| 2026-05-06 17:30 | 53.60615 | -3.52868 | 28278 ft | 378 kts | 278° |
| 2026-05-06 17:31 | 53.60930 | -3.57209 | 28001 ft | 369 kts | 278° |
| 2026-05-06 17:31 | 53.61240 | -3.61453 | 27731 ft | 361 kts | 278° |
| 2026-05-06 17:31 | 53.61627 | -3.65570 | 27452 ft | 351 kts | 285° |
| 2026-05-06 17:31 | 53.62332 | -3.69446 | 27187 ft | 342 kts | 293° |
| 2026-05-06 17:32 | 53.63225 | -3.73109 | 26924 ft | 334 kts | 294° |
| 2026-05-06 17:32 | 53.64096 | -3.76698 | 26659 ft | 327 kts | 293° |
| 2026-05-06 17:32 | 53.64942 | -3.80224 | 26404 ft | 321 kts | 293° |
| 2026-05-06 17:32 | 53.65768 | -3.83697 | 26148 ft | 318 kts | 292° |
| 2026-05-06 17:33 | 53.66585 | -3.87154 | 25895 ft | 316 kts | 292° |
| 2026-05-06 17:33 | 53.67396 | -3.90589 | 25647 ft | 315 kts | 292° |
| 2026-05-06 17:33 | 53.68205 | -3.94005 | 25403 ft | 312 kts | 292° |
| 2026-05-06 17:33 | 53.69010 | -3.97390 | 25159 ft | 310 kts | 292° |
| 2026-05-06 17:34 | 53.69810 | -4.00759 | 24905 ft | 308 kts | 292° |
| 2026-05-06 17:34 | 53.70605 | -4.04108 | 24665 ft | 307 kts | 292° |
| 2026-05-06 17:34 | 53.71324 | -4.07493 | 24436 ft | 306 kts | 285° |
| 2026-05-06 17:34 | 53.71737 | -4.11003 | 24197 ft | 305 kts | 277° |
| 2026-05-06 17:35 | 53.71890 | -4.14563 | 23973 ft | 304 kts | 275° |
| 2026-05-06 17:35 | 53.72023 | -4.18122 | 23658 ft | 303 kts | 275° |
| 2026-05-06 17:35 | 53.72156 | -4.21620 | 23270 ft | 302 kts | 275° |
| 2026-05-06 17:36 | 53.72426 | -4.28632 | 22547 ft | 297 kts | 274° |
| 2026-05-06 17:36 | 53.72556 | -4.32093 | 22193 ft | 294 kts | 274° |
| 2026-05-06 17:36 | 53.72682 | -4.35528 | 21835 ft | 292 kts | 274° |
| 2026-05-06 17:36 | 53.72805 | -4.38939 | 21483 ft | 290 kts | 274° |
| 2026-05-06 17:37 | 53.72927 | -4.42325 | 21124 ft | 288 kts | 274° |
| 2026-05-06 17:37 | 53.73048 | -4.45677 | 20769 ft | 285 kts | 274° |
| 2026-05-06 17:37 | 53.73168 | -4.49015 | 20414 ft | 283 kts | 274° |
| 2026-05-06 17:37 | 53.73287 | -4.52318 | 20064 ft | 281 kts | 274° |
| 2026-05-06 17:38 | 53.73401 | -4.55599 | 19713 ft | 279 kts | 273° |
| 2026-05-06 17:38 | 53.73513 | -4.58861 | 19358 ft | 277 kts | 273° |
| 2026-05-06 17:38 | 53.73623 | -4.62103 | 19015 ft | 275 kts | 273° |
| 2026-05-06 17:38 | 53.73732 | -4.65323 | 18672 ft | 274 kts | 273° |
| 2026-05-06 17:39 | 53.73840 | -4.68526 | 18335 ft | 272 kts | 273° |
| 2026-05-06 17:39 | 53.73946 | -4.71704 | 17961 ft | 270 kts | 273° |
| 2026-05-06 17:39 | 53.74051 | -4.74851 | 17620 ft | 267 kts | 273° |
| 2026-05-06 17:39 | 53.74155 | -4.77971 | 17291 ft | 265 kts | 272° |
| 2026-05-06 17:40 | 53.74257 | -4.81073 | 16962 ft | 263 kts | 272° |
| 2026-05-06 17:40 | 53.74356 | -4.84110 | 16632 ft | 262 kts | 272° |
| 2026-05-06 17:40 | 53.74457 | -4.87168 | 16320 ft | 260 kts | 272° |
| 2026-05-06 17:40 | 53.74557 | -4.90210 | 15995 ft | 259 kts | 272° |
| 2026-05-06 17:41 | 53.74657 | -4.93237 | 15692 ft | 257 kts | 272° |
| 2026-05-06 17:41 | 53.74755 | -4.96249 | 15381 ft | 256 kts | 272° |
| 2026-05-06 17:41 | 53.74849 | -4.99245 | 15071 ft | 255 kts | 272° |
| 2026-05-06 17:41 | 53.74941 | -5.02222 | 14756 ft | 253 kts | 272° |
| 2026-05-06 17:42 | 53.75033 | -5.05190 | 14453 ft | 252 kts | 272° |
| 2026-05-06 17:42 | 53.75086 | -5.08132 | 14152 ft | 249 kts | 264° |
| 2026-05-06 17:42 | 53.74591 | -5.10902 | 14054 ft | 249 kts | 240° |
| 2026-05-06 17:42 | 53.73429 | -5.13075 | 14000 ft | 254 kts | 217° |
| 2026-05-06 17:43 | 53.71926 | -5.14664 | 13946 ft | 255 kts | 214° |
| 2026-05-06 17:43 | 53.70409 | -5.16229 | 13885 ft | 256 kts | 214° |
| 2026-05-06 17:43 | 53.68889 | -5.17791 | 13837 ft | 256 kts | 214° |
| 2026-05-06 17:43 | 53.67372 | -5.19349 | 13781 ft | 255 kts | 214° |
| 2026-05-06 17:44 | 53.65856 | -5.20909 | 13723 ft | 255 kts | 214° |
| 2026-05-06 17:44 | 53.64345 | -5.22462 | 13641 ft | 254 kts | 214° |
| 2026-05-06 17:44 | 53.62837 | -5.24012 | 13587 ft | 254 kts | 214° |
| 2026-05-06 17:44 | 53.61328 | -5.25567 | 13523 ft | 254 kts | 214° |
| 2026-05-06 17:45 | 53.59816 | -5.27119 | 13469 ft | 254 kts | 214° |
| 2026-05-06 17:45 | 53.58307 | -5.28666 | 13414 ft | 254 kts | 214° |
| 2026-05-06 17:45 | 53.56799 | -5.30206 | 13367 ft | 254 kts | 214° |
| 2026-05-06 17:45 | 53.55290 | -5.31746 | 13309 ft | 254 kts | 214° |
| 2026-05-06 17:46 | 53.53785 | -5.33283 | 13252 ft | 253 kts | 214° |
| 2026-05-06 17:46 | 53.52278 | -5.34822 | 13198 ft | 253 kts | 214° |
| 2026-05-06 17:46 | 53.51281 | -5.35843 | 13150 ft | 253 kts | 214° |
| 2026-05-06 17:46 | 53.49779 | -5.37381 | 13108 ft | 253 kts | 214° |
| 2026-05-06 17:47 | 53.48277 | -5.38918 | 13048 ft | 253 kts | 214° |
| 2026-05-06 17:47 | 53.46773 | -5.40457 | 12999 ft | 253 kts | 214° |
| 2026-05-06 17:47 | 53.45271 | -5.41991 | 12947 ft | 253 kts | 214° |
| 2026-05-06 17:47 | 53.43770 | -5.43521 | 12890 ft | 252 kts | 214° |
| 2026-05-06 17:48 | 53.42270 | -5.45041 | 12838 ft | 251 kts | 214° |
| 2026-05-06 17:48 | 53.40773 | -5.46555 | 12769 ft | 251 kts | 214° |
| 2026-05-06 17:48 | 53.39280 | -5.48069 | 12731 ft | 251 kts | 214° |
| 2026-05-06 17:48 | 53.37787 | -5.49586 | 12679 ft | 251 kts | 214° |
| 2026-05-06 17:49 | 53.36295 | -5.51099 | 12630 ft | 251 kts | 214° |
| 2026-05-06 17:49 | 53.34803 | -5.52612 | 12574 ft | 250 kts | 214° |
| 2026-05-06 17:49 | 53.33314 | -5.54120 | 12529 ft | 250 kts | 214° |
| 2026-05-06 17:49 | 53.31821 | -5.55625 | 12469 ft | 250 kts | 213° |
| 2026-05-06 17:50 | 53.30332 | -5.57127 | 12416 ft | 250 kts | 214° |
| 2026-05-06 17:50 | 53.28846 | -5.58631 | 12364 ft | 250 kts | 214° |
| 2026-05-06 17:50 | 53.27346 | -5.60151 | 11897 ft | 260 kts | 214° |
| 2026-05-06 17:50 | 53.25981 | -5.62174 | 11202 ft | 265 kts | 237° |
| 2026-05-06 17:51 | 53.25301 | -5.65060 | 10456 ft | 275 kts | 264° |
| 2026-05-06 17:51 | 53.25536 | -5.68261 | 9723 ft | 287 kts | 291° |
| 2026-05-06 17:51 | 53.26690 | -5.71015 | 8992 ft | 296 kts | 313° |
| 2026-05-06 17:51 | 53.28140 | -5.73505 | 8288 ft | 302 kts | 313° |
| 2026-05-06 17:52 | 53.29618 | -5.76038 | 7618 ft | 307 kts | 313° |
| 2026-05-06 17:52 | 53.31116 | -5.78612 | 6938 ft | 310 kts | 313° |
| 2026-05-06 17:52 | 53.32603 | -5.81174 | 6227 ft | 300 kts | 313° |
| 2026-05-06 17:52 | 53.34023 | -5.83628 | 5485 ft | 288 kts | 313° |
| 2026-05-06 17:53 | 53.35389 | -5.85993 | 4762 ft | 278 kts | 313° |
| 2026-05-06 17:53 | 53.36708 | -5.88286 | 4033 ft | 270 kts | 313° |
| 2026-05-06 17:53 | 53.37997 | -5.90529 | 3307 ft | 264 kts | 313° |
| 2026-05-06 17:53 | 53.39223 | -5.92662 | 3031 ft | 242 kts | 312° |
| 2026-05-06 17:54 | 53.40123 | -5.94808 | 2987 ft | 209 kts | 291° |
| 2026-05-06 17:54 | 53.40450 | -5.97021 | 2855 ft | 186 kts | 273° |
| 2026-05-06 17:54 | 53.40568 | -5.99193 | 2664 ft | 197 kts | 274° |
| 2026-05-06 17:54 | 53.40699 | -6.01539 | 2534 ft | 195 kts | 274° |
| 2026-05-06 17:55 | 53.40822 | -6.03669 | 2455 ft | 170 kts | 274° |
| 2026-05-06 17:55 | 53.40928 | -6.05520 | 2445 ft | 154 kts | 274° |
| 2026-05-06 17:55 | 53.41027 | -6.07265 | 2305 ft | 148 kts | 274° |
| 2026-05-06 17:55 | 53.41123 | -6.08967 | 2132 ft | 146 kts | 274° |
| 2026-05-06 17:56 | 53.41218 | -6.10651 | 1945 ft | 145 kts | 273° |
| 2026-05-06 17:56 | 53.41313 | -6.12330 | 1756 ft | 144 kts | 274° |
| 2026-05-06 17:56 | 53.41406 | -6.13980 | 1555 ft | 144 kts | 274° |
| 2026-05-06 17:56 | 53.41502 | -6.15674 | 1358 ft | 144 kts | 273° |
| 2026-05-06 17:57 | 53.41594 | -6.17321 | 1157 ft | 144 kts | 274° |
| 2026-05-06 17:57 | 53.41689 | -6.19016 | 951 ft | 145 kts | 273° |
| 2026-05-06 17:57 | 53.41784 | -6.20716 | 752 ft | 147 kts | 274° |
| 2026-05-06 17:57 | 53.41878 | -6.22407 | 576 ft | 147 kts | 273° |
| 2026-05-06 17:58 | 53.41971 | -6.24079 | 381 ft | 146 kts | 273° |
| 2026-05-06 17:58 | 53.42061 | -6.25739 | 231 ft | 138 kts | 274° |
| 2026-05-06 17:58 | 53.42128 | -6.27061 | 231 ft | 86 kts | 275° |
| 2026-05-06 17:58 | 53.42181 | -6.27742 | 233 ft | 42 kts | 285° |
| 2026-05-06 17:59 | 53.42281 | -6.28075 | 228 ft | 20 kts | 310° |
| 2026-05-06 17:59 | 53.42361 | -6.28014 | 225 ft | 16 kts | 95° |
| 2026-05-06 17:59 | 53.42353 | -6.27836 | 225 ft | 15 kts | 95° |
| 2026-05-06 17:59 | 53.42343 | -6.27667 | 225 ft | 14 kts | 95° |
| 2026-05-06 18:00 | 53.42334 | -6.27496 | 225 ft | 17 kts | 96° |
| 2026-05-06 18:00 | 53.42322 | -6.27303 | 225 ft | 17 kts | 95° |
| 2026-05-06 18:00 | 53.42309 | -6.27043 | 225 ft | 29 kts | 95° |
| 2026-05-06 18:00 | 53.42286 | -6.26704 | 225 ft | 29 kts | 95° |
| 2026-05-06 18:01 | 53.42277 | -6.26367 | 225 ft | 29 kts | 95° |
| 2026-05-06 18:01 | 53.42254 | -6.26033 | 225 ft | 29 kts | 95° |
| 2026-05-06 18:01 | 53.42237 | -6.25700 | 225 ft | 29 kts | 95° |
| 2026-05-06 18:01 | 53.42218 | -6.25368 | 225 ft | 29 kts | 97° |
| 2026-05-06 18:02 | 53.42199 | -6.25044 | 228 ft | 27 kts | 96° |
| 2026-05-06 18:02 | 53.42194 | -6.24804 | 227 ft | 16 kts | 72° |
| 2026-05-06 18:02 | 53.42266 | -6.24793 | 225 ft | 11 kts | 343° |
| 2026-05-06 18:02 | 53.42347 | -6.24792 | 226 ft | 13 kts | 31° |
| 2026-05-06 18:03 | 53.42406 | -6.24683 | 225 ft | 12 kts | 57° |
| 2026-05-06 18:03 | 53.42383 | -6.24571 | 225 ft | 11 kts | 134° |
| 2026-05-06 18:03 | 53.42355 | -6.24524 | 225 ft | 0 kts | 136° |